Time;durP1;ratioP1;P1;durP2;ratioP2;P2;SDS_P1;SDS_P2;PMS_P1;PMS_P2;Temp;Humidity;BMP_temperature;BMP_pressure;BME280_temperature;BME280_humidity;BME280_pressure;Samples;Min_cycle;Max_cycle;Signal;HPM_P1;HPM_P2
2024/01/03 00:00:21;;;;;;;0.60;0.60;;;;;;;12.66;88.05;98433.44;4945958;28;20037;-67
2024/01/03 00:02:47;;;;;;;0.60;0.60;;;;;;;12.30;86.95;98372.72;4946502;28;20463;-68
2024/01/03 00:05:13;;;;;;;0.60;0.60;;;;;;;12.73;86.26;98424.94;4944423;28;20140;-67
2024/01/03 00:07:40;;;;;;;0.60;0.60;;;;;;;12.72;85.45;98433.88;4942545;29;20480;-67
2024/01/03 00:10:40;;;;;;;0.70;0.70;;;;;;;12.84;84.96;98432.19;4943551;29;20023;-68
2024/01/03 00:13:26;;;;;;;0.70;0.70;;;;;;;12.90;84.48;98421.97;4916535;29;20544;-68
2024/01/03 00:16:10;;;;;;;0.60;0.60;;;;;;;12.92;82.69;98441.41;4966622;28;20027;-67
2024/01/03 00:18:50;;;;;;;0.60;0.60;;;;;;;12.97;81.97;98425.94;4949683;28;20023;-67
2024/01/03 00:21:25;;;;;;;0.60;0.60;;;;;;;13.02;81.00;98428.31;4940827;28;20039;-68
2024/01/03 00:23:53;;;;;;;0.63;0.63;;;;;;;13.02;81.33;98425.66;4945829;29;20031;-67
2024/01/03 00:26:19;;;;;;;0.60;0.60;;;;;;;12.97;81.84;98444.63;4931532;29;20043;-67
2024/01/03 00:28:45;;;;;;;0.60;0.60;;;;;;;12.95;82.32;98445.66;4933943;28;20100;-67
2024/01/03 00:31:19;;;;;;;0.60;0.60;;;;;;;12.92;83.46;98451.22;4938385;29;20106;-67
2024/01/03 00:33:45;;;;;;;0.70;0.70;;;;;;;12.78;84.74;98456.63;4950421;29;20763;-67
2024/01/03 00:36:12;;;;;;;0.60;0.60;;;;;;;12.73;85.50;98461.41;4946419;29;20038;-67
2024/01/03 00:38:41;;;;;;;0.70;0.70;;;;;;;12.77;85.42;98454.91;4930664;29;20107;-67
2024/01/03 00:41:09;;;;;;;0.60;0.60;;;;;;;12.71;86.93;98453.53;4947801;29;20112;-67
2024/01/03 00:43:39;;;;;;;0.70;0.70;;;;;;;12.75;86.61;98465.69;4937921;29;20122;-67
2024/01/03 00:46:06;;;;;;;0.60;0.60;;;;;;;12.67;87.44;98441.31;4949874;29;20306;-67
2024/01/03 00:48:33;;;;;;;0.60;0.60;;;;;;;12.74;87.97;98458.66;4950070;29;20121;-67
2024/01/03 00:50:59;;;;;;;0.60;0.60;;;;;;;12.60;87.94;98432.00;4950435;29;20035;-67
2024/01/03 00:53:25;;;;;;;0.60;0.60;;;;;;;12.76;87.75;98451.41;4944089;29;20111;-67
2024/01/03 00:55:52;;;;;;;0.60;0.60;;;;;;;12.82;87.97;98450.13;4934377;29;20094;-67
2024/01/03 00:58:18;;;;;;;0.60;0.60;;;;;;;12.75;88.15;98433.66;4929882;29;20765;-67
2024/01/03 01:00:44;;;;;;;0.68;0.68;;;;;;;12.83;88.30;98447.34;4948881;29;20126;-68
2024/01/03 01:03:09;;;;;;;0.60;0.60;;;;;;;12.80;88.98;98468.91;4946588;29;20118;-68
2024/01/03 01:05:35;;;;;;;0.60;0.60;;;;;;;12.82;90.08;98460.78;4945341;28;20034;-67
2024/01/03 01:08:00;;;;;;;0.60;0.60;;;;;;;12.76;91.17;98456.75;4951107;28;20027;-67
2024/01/03 01:10:26;;;;;;;0.70;0.70;;;;;;;12.65;92.20;98458.41;4931367;29;20035;-67
2024/01/03 01:12:51;;;;;;;0.68;0.68;;;;;;;12.61;92.73;98457.75;4946704;29;20063;-67
2024/01/03 01:15:17;;;;;;;0.70;0.70;;;;;;;12.56;93.57;98454.53;4948983;28;20058;-68
2024/01/03 01:17:42;;;;;;;0.60;0.60;;;;;;;12.53;94.11;98460.06;4949881;29;20038;-67
2024/01/03 01:20:08;;;;;;;0.70;0.70;;;;;;;12.52;93.89;98462.81;4950507;29;20077;-67
2024/01/03 01:22:34;;;;;;;0.70;0.70;;;;;;;12.42;94.76;98459.88;4928519;29;20023;-67
2024/01/03 01:24:59;;;;;;;0.60;0.60;;;;;;;12.37;95.20;98459.31;4948073;29;20038;-67
2024/01/03 01:27:24;;;;;;;0.60;0.60;;;;;;;12.24;96.60;98453.06;4929455;29;20046;-67
2024/01/03 01:29:50;;;;;;;0.70;0.70;;;;;;;12.18;97.63;98471.25;4931150;29;20059;-67
2024/01/03 01:32:15;;;;;;;0.65;0.65;;;;;;;12.11;99.05;98473.44;4941075;28;20495;-67
2024/01/03 01:34:41;;;;;;;0.70;0.70;;;;;;;11.92;99.09;98443.59;4943787;29;20038;-67
2024/01/03 01:37:07;;;;;;;0.65;0.65;;;;;;;12.12;99.91;98479.66;4947896;29;20367;-67
2024/01/03 01:39:33;;;;;;;0.60;0.60;;;;;;;12.12;100.00;98483.19;4931006;29;20031;-67
2024/01/03 01:41:58;;;;;;;0.60;0.60;;;;;;;12.09;99.56;98491.38;4937882;29;20436;-67
2024/01/03 01:44:24;;;;;;;0.70;0.70;;;;;;;12.09;99.54;98494.03;4943077;29;20371;-67
2024/01/03 01:46:49;;;;;;;0.70;0.70;;;;;;;12.07;99.12;98493.28;4946869;28;20035;-68
2024/01/03 01:49:18;;;;;;;0.70;0.70;;;;;;;12.04;98.68;98497.94;4952265;28;20395;-67
2024/01/03 01:51:45;;;;;;;0.70;0.70;;;;;;;11.95;99.71;98491.38;4950952;28;20139;-68
2024/01/03 01:54:12;;;;;;;0.60;0.60;;;;;;;11.95;100.00;98488.69;4948497;29;20039;-68
2024/01/03 01:56:39;;;;;;;0.70;0.70;;;;;;;11.96;100.00;98509.06;4934274;29;20075;-68
2024/01/03 01:59:06;;;;;;;0.65;0.65;;;;;;;11.93;100.00;98503.91;4928806;29;20110;-68
2024/01/03 02:01:34;;;;;;;0.60;0.60;;;;;;;11.95;100.00;98502.03;4947595;29;20031;-68
2024/01/03 02:04:03;;;;;;;0.60;0.60;;;;;;;11.85;100.00;98508.88;4938505;28;20487;-67
2024/01/03 02:06:29;;;;;;;0.70;0.70;;;;;;;11.80;100.00;98500.31;4950112;28;20078;-68
2024/01/03 02:08:54;;;;;;;0.70;0.70;;;;;;;11.53;100.00;98468.19;4949136;29;20039;-68
2024/01/03 02:11:20;;;;;;;0.70;0.70;;;;;;;11.71;100.00;98501.72;4936906;28;20034;-68
2024/01/03 02:13:48;;;;;;;0.60;0.60;;;;;;;11.70;100.00;98499.16;4965629;28;20166;-68
2024/01/03 02:16:13;;;;;;;0.70;0.70;;;;;;;11.68;100.00;98507.25;4958061;28;20031;-68
2024/01/03 02:18:41;;;;;;;0.80;0.80;;;;;;;11.56;100.00;98496.47;4953247;29;20020;-68
2024/01/03 02:21:15;;;;;;;0.70;0.70;;;;;;;11.53;100.00;98499.31;4952675;29;20495;-67
2024/01/03 02:23:43;;;;;;;0.60;0.60;;;;;;;11.50;100.00;98503.00;4952587;28;20507;-68
2024/01/03 02:26:09;;;;;;;0.70;0.70;;;;;;;11.51;100.00;98496.75;4947358;29;20181;-68
2024/01/03 02:28:35;;;;;;;0.77;0.77;;;;;;;11.50;100.00;98499.47;4952547;29;20515;-68
2024/01/03 02:31:01;;;;;;;0.70;0.70;;;;;;;11.46;100.00;98500.63;4949788;29;20031;-67
2024/01/03 02:33:26;;;;;;;0.70;0.70;;;;;;;11.49;100.00;98492.44;4952178;29;20035;-68
2024/01/03 02:35:52;;;;;;;0.70;0.70;;;;;;;11.42;100.00;98491.97;4951852;29;20046;-68
2024/01/03 02:38:18;;;;;;;0.80;0.80;;;;;;;11.46;100.00;98505.94;4950197;29;20499;-69
2024/01/03 02:40:44;;;;;;;0.60;0.60;;;;;;;11.47;100.00;98502.31;4952651;29;20050;-68
2024/01/03 02:43:10;;;;;;;0.70;0.70;;;;;;;11.41;100.00;98503.56;4938940;29;20051;-69
2024/01/03 02:45:36;;;;;;;0.70;0.70;;;;;;;11.39;100.00;98509.91;4951980;29;20030;-68
2024/01/03 02:48:01;;;;;;;0.77;0.77;;;;;;;11.37;100.00;98512.66;4952063;29;20023;-67
2024/01/03 02:50:27;;;;;;;0.70;0.70;;;;;;;11.39;100.00;98510.78;4951001;29;20041;-67
2024/01/03 02:52:52;;;;;;;0.70;0.70;;;;;;;11.36;100.00;98507.44;4949345;29;20035;-68
2024/01/03 02:55:17;;;;;;;0.70;0.70;;;;;;;11.38;100.00;98510.88;4954375;28;20409;-68
2024/01/03 02:57:43;;;;;;;0.73;0.73;;;;;;;11.40;100.00;98511.66;4969948;28;20042;-68
2024/01/03 03:00:10;;;;;;;0.70;0.70;;;;;;;11.35;100.00;98519.03;4967101;28;20033;-68
2024/01/03 03:02:35;;;;;;;0.70;0.70;;;;;;;11.33;100.00;98512.94;4962601;28;20109;-68
2024/01/03 03:05:01;;;;;;;0.70;0.70;;;;;;;11.39;100.00;98531.22;4969869;28;20605;-68
2024/01/03 03:07:26;;;;;;;0.70;0.70;;;;;;;11.20;100.00;98499.50;4969808;28;20026;-68
2024/01/03 03:09:52;;;;;;;0.70;0.70;;;;;;;11.48;100.00;98534.19;4967906;28;20521;-68
2024/01/03 03:12:17;;;;;;;0.70;0.70;;;;;;;11.26;100.00;98501.81;4970707;28;20122;-68
2024/01/03 03:14:44;;;;;;;0.70;0.70;;;;;;;11.29;100.00;98508.75;4953431;28;20039;-68
2024/01/03 03:17:09;;;;;;;0.70;0.70;;;;;;;11.46;100.00;98537.88;4985984;28;20034;-68
2024/01/03 03:19:35;;;;;;;0.70;0.70;;;;;;;11.45;100.00;98538.84;4968959;28;20430;-67
2024/01/03 03:22:00;;;;;;;0.70;0.70;;;;;;;11.46;100.00;98543.22;4957084;28;20034;-67
2024/01/03 03:24:26;;;;;;;0.70;0.70;;;;;;;11.46;100.00;98543.22;4970506;28;20113;-67
2024/01/03 03:26:52;;;;;;;0.63;0.63;;;;;;;11.46;100.00;98538.75;4970571;28;20023;-67
2024/01/03 03:29:17;;;;;;;0.70;0.70;;;;;;;11.42;100.00;98547.00;4967082;28;20053;-67
2024/01/03 03:31:43;;;;;;;0.70;0.70;;;;;;;11.42;100.00;98552.31;4970687;28;20490;-68
2024/01/03 03:34:08;;;;;;;0.70;0.70;;;;;;;11.45;100.00;98544.19;4966318;28;20117;-68
2024/01/03 03:36:34;;;;;;;0.80;0.80;;;;;;;11.41;100.00;98545.28;4951201;29;20082;-68
2024/01/03 03:38:59;;;;;;;0.70;0.70;;;;;;;11.46;100.00;98543.22;4967615;28;20111;-68
2024/01/03 03:41:24;;;;;;;0.70;0.70;;;;;;;11.46;100.00;98551.19;4953431;28;20029;-68
2024/01/03 03:43:50;;;;;;;0.60;0.60;;;;;;;11.45;100.00;98536.19;4968971;28;20027;-67
2024/01/03 03:46:17;;;;;;;0.70;0.70;;;;;;;11.45;100.00;98541.50;4970481;28;20109;-68
2024/01/03 03:48:42;;;;;;;0.70;0.70;;;;;;;11.17;100.00;98488.19;4979190;28;20039;-68
2024/01/03 03:51:08;;;;;;;0.73;0.73;;;;;;;11.37;100.00;98517.13;4957760;28;20035;-68
2024/01/03 03:53:33;;;;;;;0.70;0.70;;;;;;;11.34;100.00;98527.97;4969041;28;20569;-68
2024/01/03 03:55:59;;;;;;;0.70;0.70;;;;;;;11.35;100.00;98524.38;4941031;28;20832;-68
2024/01/03 03:58:24;;;;;;;0.70;0.70;;;;;;;11.35;100.00;98524.38;4960403;28;20026;-68
2024/01/03 04:00:49;;;;;;;0.80;0.80;;;;;;;11.39;100.00;98526.75;4947064;28;20114;-68
2024/01/03 04:03:15;;;;;;;0.80;0.80;;;;;;;11.45;100.00;98530.88;4969237;28;20483;-68
2024/01/03 04:05:40;;;;;;;0.70;0.70;;;;;;;11.48;100.00;98525.34;4970868;28;20042;-68
2024/01/03 04:08:06;;;;;;;0.70;0.70;;;;;;;11.51;100.00;98530.50;4970423;28;20030;-67
2024/01/03 04:10:32;;;;;;;0.70;0.70;;;;;;;11.60;100.00;98535.25;4970171;28;20389;-68
2024/01/03 04:12:58;;;;;;;0.70;0.70;;;;;;;11.62;100.00;98522.69;4971919;28;20037;-68
2024/01/03 04:15:24;;;;;;;0.70;0.70;;;;;;;11.64;100.00;98528.84;4969555;28;20034;-68
2024/01/03 04:17:50;;;;;;;0.70;0.70;;;;;;;11.68;100.00;98525.00;4974757;28;20031;-68
2024/01/03 04:20:16;;;;;;;0.65;0.65;;;;;;;11.76;100.00;98522.78;4978723;28;20077;-68
2024/01/03 04:22:45;;;;;;;0.70;0.70;;;;;;;11.73;100.00;98530.91;4970094;28;20655;-68
2024/01/03 04:25:11;;;;;;;0.65;0.65;;;;;;;11.67;100.00;98532.16;4950896;29;20059;-68
2024/01/03 04:27:37;;;;;;;0.70;0.70;;;;;;;11.59;100.00;98534.41;4955181;28;20038;-68
2024/01/03 04:30:04;;;;;;;0.70;0.70;;;;;;;11.58;100.00;98537.16;4963971;28;20030;-67
2024/01/03 04:32:30;;;;;;;0.65;0.65;;;;;;;11.55;100.00;98532.00;4969880;28;20459;-67
2024/01/03 04:34:56;;;;;;;0.70;0.70;;;;;;;11.53;100.00;98531.25;4969296;28;20023;-68
2024/01/03 04:37:21;;;;;;;0.50;0.50;;;;;;;11.44;100.00;98535.31;4966535;28;20042;-68
2024/01/03 04:39:47;;;;;;;0.70;0.70;;;;;;;11.26;100.00;98503.59;4968546;28;20096;-68
2024/01/03 04:42:12;;;;;;;0.70;0.70;;;;;;;11.39;100.00;98552.50;4969253;28;20030;-68
2024/01/03 04:44:39;;;;;;;0.80;0.80;;;;;;;11.11;100.00;98515.16;4963826;28;20026;-68
2024/01/03 04:47:05;;;;;;;0.60;0.60;;;;;;;11.15;100.00;98511.38;4967867;28;20026;-67
2024/01/03 04:49:30;;;;;;;0.63;0.63;;;;;;;11.25;100.00;98537.34;4965937;28;20447;-67
2024/01/03 04:51:55;;;;;;;0.70;0.70;;;;;;;11.22;100.00;98544.69;4950073;28;20027;-67
2024/01/03 04:54:21;;;;;;;0.70;0.70;;;;;;;11.27;100.00;98547.91;4952234;28;20030;-68
2024/01/03 04:56:47;;;;;;;0.60;0.60;;;;;;;11.32;99.98;98543.16;4967899;28;20399;-68
2024/01/03 04:59:12;;;;;;;0.70;0.70;;;;;;;11.48;97.28;98531.50;4963214;28;20035;-67
2024/01/03 05:01:39;;;;;;;0.70;0.70;;;;;;;11.67;93.45;98536.63;4949800;28;20027;-67
2024/01/03 05:04:05;;;;;;;0.70;0.70;;;;;;;11.98;89.65;98535.63;4973614;28;20031;-68
2024/01/03 05:06:31;;;;;;;0.70;0.70;;;;;;;12.23;86.69;98539.34;4957056;28;20038;-67
2024/01/03 05:08:56;;;;;;;0.70;0.70;;;;;;;12.37;85.65;98541.97;4965067;28;20038;-68
2024/01/03 05:11:21;;;;;;;0.70;0.70;;;;;;;12.32;83.88;98498.75;4966396;28;20034;-68
2024/01/03 05:13:47;;;;;;;0.70;0.70;;;;;;;12.48;83.62;98526.16;4948114;28;20050;-68
2024/01/03 05:16:13;;;;;;;0.60;0.60;;;;;;;12.68;81.23;98530.22;4950285;28;20114;-67
2024/01/03 05:18:38;;;;;;;0.60;0.60;;;;;;;12.72;81.12;98540.59;4969245;28;20049;-67
2024/01/03 05:21:05;;;;;;;0.60;0.60;;;;;;;12.71;80.22;98533.56;4962585;28;20027;-67
2024/01/03 05:23:31;;;;;;;0.60;0.60;;;;;;;12.80;79.89;98516.94;4968608;28;20474;-67
2024/01/03 05:25:56;;;;;;;0.60;0.60;;;;;;;12.84;79.46;98533.59;4969281;28;20082;-67
2024/01/03 05:28:22;;;;;;;0.60;0.60;;;;;;;12.84;79.60;98538.94;4968086;28;20062;-67
2024/01/03 05:30:47;;;;;;;0.60;0.60;;;;;;;12.85;79.93;98541.50;4949911;28;20057;-67
2024/01/03 05:33:12;;;;;;;0.50;0.50;;;;;;;12.89;80.22;98548.38;4968978;28;20031;-67
2024/01/03 05:35:38;;;;;;;0.68;0.68;;;;;;;12.87;81.19;98546.75;4969454;28;20621;-67
2024/01/03 05:38:03;;;;;;;0.70;0.70;;;;;;;12.79;81.95;98536.56;4966200;28;20411;-67
2024/01/03 05:40:29;;;;;;;0.60;0.60;;;;;;;12.80;82.07;98543.59;4954561;28;20031;-67
2024/01/03 05:42:54;;;;;;;0.70;0.70;;;;;;;12.78;81.87;98540.19;4966350;28;20865;-67
2024/01/03 05:45:20;;;;;;;0.70;0.70;;;;;;;12.81;82.70;98550.69;4966296;28;20117;-67
2024/01/03 05:47:45;;;;;;;0.68;0.68;;;;;;;12.74;82.44;98532.47;4967857;28;20034;-67
2024/01/03 05:50:11;;;;;;;0.60;0.60;;;;;;;12.78;82.45;98534.84;4967470;28;20019;-67
2024/01/03 05:52:36;;;;;;;0.60;0.60;;;;;;;12.81;83.23;98525.81;4954058;28;20034;-67
2024/01/03 05:55:02;;;;;;;0.60;0.60;;;;;;;12.77;82.85;98538.47;4966379;28;20118;-67
2024/01/03 05:57:28;;;;;;;0.60;0.60;;;;;;;12.71;83.66;98538.88;4953140;29;20035;-67
2024/01/03 05:59:54;;;;;;;0.70;0.70;;;;;;;12.65;84.21;98536.59;4955165;28;20023;-68
2024/01/03 06:02:19;;;;;;;0.70;0.70;;;;;;;12.36;84.85;98505.59;4952740;28;20110;-67
2024/01/03 06:04:46;;;;;;;0.60;0.60;;;;;;;12.49;87.42;98538.53;4952885;29;20419;-67
2024/01/03 06:07:12;;;;;;;0.70;0.70;;;;;;;12.40;89.17;98547.13;4950588;29;20023;-67
2024/01/03 06:09:37;;;;;;;0.60;0.60;;;;;;;12.31;90.47;98545.03;4948027;29;20630;-67
2024/01/03 06:12:03;;;;;;;0.60;0.60;;;;;;;12.19;92.33;98539.63;4946416;29;20086;-67
2024/01/03 06:14:28;;;;;;;0.60;0.60;;;;;;;12.11;93.62;98542.75;4950414;29;20498;-67
2024/01/03 06:16:53;;;;;;;0.70;0.70;;;;;;;12.06;94.91;98538.69;4940595;29;20039;-67
2024/01/03 06:19:19;;;;;;;0.60;0.60;;;;;;;12.05;95.89;98540.47;4951264;29;20042;-67
2024/01/03 06:21:44;;;;;;;0.60;0.60;;;;;;;12.06;95.74;98528.84;4957292;28;20065;-67
2024/01/03 06:24:10;;;;;;;0.60;0.60;;;;;;;11.91;96.52;98498.69;4971394;28;20403;-67
2024/01/03 06:26:36;;;;;;;0.70;0.70;;;;;;;12.11;95.77;98532.09;4953057;28;20033;-67
2024/01/03 06:29:01;;;;;;;0.70;0.70;;;;;;;12.10;95.68;98529.53;4936336;28;20020;-68
2024/01/03 06:31:27;;;;;;;0.70;0.70;;;;;;;12.08;95.35;98532.28;4941310;29;20106;-68
2024/01/03 06:33:52;;;;;;;0.70;0.70;;;;;;;12.11;94.76;98534.75;4953603;28;20059;-67
2024/01/03 06:36:19;;;;;;;0.60;0.60;;;;;;;12.09;95.08;98534.03;4944252;29;20483;-69
2024/01/03 06:38:44;;;;;;;0.70;0.70;;;;;;;12.09;94.80;98533.16;4944163;29;20036;-68
2024/01/03 06:41:09;;;;;;;0.70;0.70;;;;;;;11.88;94.60;98498.03;4937195;29;20031;-68
2024/01/03 06:43:35;;;;;;;0.70;0.70;;;;;;;12.09;95.49;98525.16;4950900;29;20138;-68
2024/01/03 06:46:00;;;;;;;0.60;0.60;;;;;;;12.04;94.78;98528.13;4947138;29;20023;-67
2024/01/03 06:48:26;;;;;;;0.60;0.60;;;;;;;11.90;95.09;98496.13;4945769;29;20039;-68
2024/01/03 06:50:51;;;;;;;0.70;0.70;;;;;;;12.06;94.38;98526.19;4934598;29;20402;-69
2024/01/03 06:53:16;;;;;;;0.70;0.70;;;;;;;12.09;94.88;98533.16;4952586;29;20035;-68
2024/01/03 06:55:42;;;;;;;0.60;0.60;;;;;;;12.07;95.34;98525.25;4944755;28;20518;-68
2024/01/03 06:58:07;;;;;;;0.70;0.70;;;;;;;12.08;96.09;98528.75;4952089;28;20467;-67
2024/01/03 07:00:33;;;;;;;0.70;0.70;;;;;;;12.15;95.56;98530.97;4953336;28;20258;-68
2024/01/03 07:02:58;;;;;;;0.70;0.70;;;;;;;12.14;96.20;98534.56;4949924;28;20023;-68
2024/01/03 07:05:24;;;;;;;0.70;0.70;;;;;;;12.14;96.31;98521.22;4926046;29;20611;-68
2024/01/03 07:07:49;;;;;;;0.70;0.70;;;;;;;12.13;96.82;98519.53;4943685;29;20043;-68
2024/01/03 07:10:15;;;;;;;0.70;0.70;;;;;;;12.13;96.71;98524.88;4949581;29;20019;-68
2024/01/03 07:12:40;;;;;;;0.70;0.70;;;;;;;12.10;97.13;98519.72;4946701;28;20162;-68
2024/01/03 07:15:06;;;;;;;0.57;0.57;;;;;;;12.10;96.92;98527.72;4949990;29;20031;-68
2024/01/03 07:17:31;;;;;;;0.68;0.68;;;;;;;12.12;95.94;98532.97;4933203;28;20031;-68
2024/01/03 07:19:57;;;;;;;0.70;0.70;;;;;;;12.12;96.08;98539.16;4949101;29;20027;-67
2024/01/03 07:22:23;;;;;;;0.68;0.68;;;;;;;12.17;96.16;98541.53;4945602;29;20059;-68
2024/01/03 07:24:49;;;;;;;0.70;0.70;;;;;;;12.20;95.86;98531.53;4937093;28;20119;-69
2024/01/03 07:27:15;;;;;;;0.70;0.70;;;;;;;12.22;96.36;98548.28;4934074;29;20129;-68
2024/01/03 07:29:41;;;;;;;0.60;0.60;;;;;;;12.23;96.90;98543.78;4944243;29;20022;-68
2024/01/03 07:32:07;;;;;;;0.70;0.70;;;;;;;12.05;97.02;98519.16;4943309;29;20043;-67
2024/01/03 07:34:32;;;;;;;0.70;0.70;;;;;;;12.18;97.39;98544.09;4950150;29;20045;-68
2024/01/03 07:36:58;;;;;;;0.70;0.70;;;;;;;12.27;97.59;98545.34;4950210;29;20023;-69
2024/01/03 07:39:23;;;;;;;0.70;0.70;;;;;;;12.26;96.85;98552.47;4923622;28;20575;-68
2024/01/03 07:41:49;;;;;;;0.60;0.60;;;;;;;12.23;97.81;98542.00;4961090;28;20034;-68
2024/01/03 07:44:15;;;;;;;0.70;0.70;;;;;;;12.25;97.40;98541.91;4950713;28;20038;-68
2024/01/03 07:46:40;;;;;;;0.70;0.70;;;;;;;12.21;96.87;98543.06;4946873;29;20035;-69
2024/01/03 07:49:06;;;;;;;0.70;0.70;;;;;;;12.27;96.47;98551.53;4932055;29;20134;-68
2024/01/03 07:51:34;;;;;;;0.70;0.70;;;;;;;12.31;96.02;98542.38;4949385;29;20475;-67
2024/01/03 07:54:00;;;;;;;0.70;0.70;;;;;;;12.39;95.53;98553.41;4948897;29;20162;-67
2024/01/03 07:56:26;;;;;;;0.70;0.70;;;;;;;12.27;95.26;98535.53;4952763;28;20503;-68
2024/01/03 07:58:51;;;;;;;0.60;0.60;;;;;;;12.36;95.27;98548.28;4950317;28;20031;-68
2024/01/03 08:01:16;;;;;;;0.70;0.70;;;;;;;12.42;95.42;98549.69;4974079;28;20643;-67
2024/01/03 08:03:42;;;;;;;0.60;0.60;;;;;;;12.38;95.96;98546.38;4969183;28;20023;-67
2024/01/03 08:06:07;;;;;;;0.80;0.80;;;;;;;12.36;97.13;98553.59;4965113;28;20053;-67
2024/01/03 08:08:33;;;;;;;0.60;0.60;;;;;;;12.34;97.70;98550.16;4972448;28;20025;-67
2024/01/03 08:10:59;;;;;;;0.60;0.60;;;;;;;12.30;98.41;98554.00;4980473;28;20046;-68
2024/01/03 08:13:24;;;;;;;0.60;0.60;;;;;;;12.29;98.87;98552.25;4943082;29;20023;-67
2024/01/03 08:15:50;;;;;;;0.60;0.60;;;;;;;12.31;98.26;98545.03;4951226;28;20078;-67
2024/01/03 08:18:15;;;;;;;0.60;0.60;;;;;;;12.32;97.93;98561.91;4969950;28;20023;-68
2024/01/03 08:20:40;;;;;;;0.60;0.60;;;;;;;12.37;98.04;98563.31;4954480;28;20121;-68
2024/01/03 08:23:06;;;;;;;0.60;0.60;;;;;;;12.27;98.05;98532.88;4951888;28;20042;-68
2024/01/03 08:25:31;;;;;;;0.60;0.60;;;;;;;12.37;98.41;98565.97;4963853;28;20038;-67
2024/01/03 08:27:57;;;;;;;0.60;0.60;;;;;;;12.40;98.09;98573.81;4947601;28;20031;-67
2024/01/03 08:30:22;;;;;;;0.60;0.60;;;;;;;12.13;98.28;98530.19;4954115;28;20059;-67
2024/01/03 08:32:47;;;;;;;0.60;0.60;;;;;;;12.35;98.25;98548.38;4978517;28;20030;-68
2024/01/03 08:35:13;;;;;;;0.60;0.60;;;;;;;12.36;98.41;98553.59;4980680;28;20027;-68
2024/01/03 08:37:38;;;;;;;0.60;0.60;;;;;;;12.33;98.38;98553.81;4952232;28;20657;-66
2024/01/03 08:40:05;;;;;;;0.60;0.60;;;;;;;12.30;97.88;98548.66;4968984;28;20081;-67
2024/01/03 08:42:31;;;;;;;0.70;0.70;;;;;;;12.13;97.66;98522.19;4964956;28;20027;-67
2024/01/03 08:44:57;;;;;;;0.70;0.70;;;;;;;12.38;97.72;98557.03;4966128;28;20675;-67
2024/01/03 08:47:22;;;;;;;0.60;0.60;;;;;;;12.36;97.34;98548.28;4948674;29;20093;-67
2024/01/03 08:49:48;;;;;;;0.60;0.60;;;;;;;12.33;97.39;98545.81;4950344;29;20043;-67
2024/01/03 08:52:13;;;;;;;0.57;0.57;;;;;;;12.34;96.80;98547.50;4949918;29;20038;-68
2024/01/03 08:54:40;;;;;;;0.60;0.60;;;;;;;12.29;96.64;98560.25;4956938;28;20031;-67
2024/01/03 08:57:08;;;;;;;0.65;0.65;;;;;;;12.18;95.58;98511.25;4932488;29;20051;-68
2024/01/03 08:59:34;;;;;;;0.65;0.65;;;;;;;12.40;95.94;98555.13;4931358;29;20443;-67
2024/01/03 09:02:01;;;;;;;0.70;0.70;;;;;;;12.41;95.91;98556.84;4932465;29;20027;-66
2024/01/03 09:04:27;;;;;;;0.60;0.60;;;;;;;12.48;96.11;98562.63;4930016;29;20499;-67
2024/01/03 09:06:52;;;;;;;0.60;0.60;;;;;;;12.46;95.68;98565.41;4945716;29;20069;-68
2024/01/03 09:09:18;;;;;;;0.60;0.60;;;;;;;12.19;94.74;98513.81;4949111;29;20031;-68
2024/01/03 09:11:44;;;;;;;0.70;0.70;;;;;;;12.45;95.49;98558.38;4949274;29;20034;-67
2024/01/03 09:14:09;;;;;;;0.70;0.70;;;;;;;12.50;95.24;98576.75;4946804;28;20059;-67
2024/01/03 09:16:36;;;;;;;0.70;0.70;;;;;;;12.47;94.92;98571.59;4944710;29;20023;-68
2024/01/03 09:19:02;;;;;;;0.60;0.60;;;;;;;12.47;94.61;98572.44;4951994;28;20328;-68
2024/01/03 09:21:28;;;;;;;0.70;0.70;;;;;;;12.46;94.58;98581.41;4929196;29;20031;-68
2024/01/03 09:23:53;;;;;;;0.60;0.60;;;;;;;12.52;94.94;98591.69;4950245;29;20043;-68
2024/01/03 09:26:20;;;;;;;0.60;0.60;;;;;;;12.54;94.96;98592.44;4945683;29;20027;-68
2024/01/03 09:28:47;;;;;;;0.60;0.60;;;;;;;12.53;94.67;98596.06;4949881;29;20038;-69
2024/01/03 09:31:12;;;;;;;0.60;0.60;;;;;;;12.55;94.66;98607.47;4943447;29;20032;-67
2024/01/03 09:33:38;;;;;;;0.60;0.60;;;;;;;12.52;95.19;98613.00;4931760;29;20032;-68
2024/01/03 09:36:04;;;;;;;0.60;0.60;;;;;;;12.54;95.75;98610.25;4948997;29;20031;-64
2024/01/03 09:38:30;;;;;;;0.70;0.70;;;;;;;12.50;95.11;98614.94;4931809;29;20020;-65
2024/01/03 09:40:57;;;;;;;0.60;0.60;;;;;;;12.48;96.79;98606.19;4929381;29;20031;-64
2024/01/03 09:43:22;;;;;;;0.60;0.60;;;;;;;12.35;98.23;98596.38;4931714;29;20055;-64
2024/01/03 09:45:49;;;;;;;0.60;0.60;;;;;;;12.38;99.57;98615.69;4929316;29;20164;-64
2024/01/03 09:48:14;;;;;;;0.60;0.60;;;;;;;12.34;99.93;98598.16;4928448;29;20031;-64
2024/01/03 09:50:39;;;;;;;0.68;0.68;;;;;;;12.35;100.00;98605.22;4951173;28;20014;-65
2024/01/03 09:53:06;;;;;;;0.70;0.70;;;;;;;12.26;100.00;98612.91;4946165;28;20268;-64
2024/01/03 09:55:34;;;;;;;0.60;0.60;;;;;;;11.98;100.00;98565.78;4940677;29;20059;-65
2024/01/03 09:58:00;;;;;;;0.60;0.60;;;;;;;12.32;100.00;98624.06;4930379;29;20024;-65
2024/01/03 10:00:30;;;;;;;0.60;0.60;;;;;;;12.31;100.00;98614.34;4933240;29;20093;-64
2024/01/03 10:03:06;;;;;;;0.70;0.70;;;;;;;12.32;100.00;98632.06;4930787;29;20059;-64
2024/01/03 10:05:32;;;;;;;0.70;0.70;;;;;;;12.34;100.00;98630.16;4932080;29;20058;-64
2024/01/03 10:07:58;;;;;;;0.65;0.65;;;;;;;12.37;100.00;98637.13;4944772;28;20486;-64
2024/01/03 10:10:34;;;;;;;0.70;0.70;;;;;;;12.35;100.00;98634.56;4949175;29;20039;-64
2024/01/03 10:13:14;;;;;;;0.70;0.70;;;;;;;12.38;100.00;98644.16;4932181;29;20240;-65
2024/01/03 10:15:40;;;;;;;0.60;0.60;;;;;;;12.47;100.00;98639.13;4951786;28;20086;-64
2024/01/03 10:18:09;;;;;;;0.70;0.70;;;;;;;12.64;100.00;98644.25;4948878;29;20035;-64
2024/01/03 10:20:35;;;;;;;0.60;0.60;;;;;;;12.71;100.00;98640.25;4931650;29;20031;-64
2024/01/03 10:23:13;;;;;;;0.60;0.60;;;;;;;12.75;98.63;98647.09;4950752;28;20031;-65
2024/01/03 10:25:43;;;;;;;0.60;0.60;;;;;;;12.79;98.00;98642.44;4945514;28;20023;-64
2024/01/03 10:28:10;;;;;;;0.70;0.70;;;;;;;12.89;96.73;98636.44;4967826;28;20594;-64
2024/01/03 10:30:36;;;;;;;0.70;0.70;;;;;;;12.89;96.36;98649.78;4967634;28;20086;-64
2024/01/03 10:33:09;;;;;;;0.63;0.63;;;;;;;12.91;96.36;98641.66;4963113;28;20050;-64
2024/01/03 10:35:44;;;;;;;0.70;0.70;;;;;;;12.81;96.34;98648.53;4945877;29;20114;-64
2024/01/03 10:38:10;;;;;;;0.60;0.60;;;;;;;12.88;96.24;98645.38;4949785;28;20062;-65
2024/01/03 10:40:44;;;;;;;0.60;0.60;;;;;;;13.00;95.53;98652.59;4951206;29;20118;-64
2024/01/03 10:43:10;;;;;;;0.60;0.60;;;;;;;13.73;93.40;98647.81;4932391;29;20027;-64
2024/01/03 10:45:35;;;;;;;0.60;0.60;;;;;;;13.88;88.54;98631.63;4950289;29;20031;-64
2024/01/03 10:48:02;;;;;;;0.60;0.60;;;;;;;14.34;88.09;98637.38;4949587;29;20031;-64
2024/01/03 10:50:28;;;;;;;0.50;0.50;;;;;;;15.96;82.27;98628.97;4933137;29;20027;-64
2024/01/03 10:52:57;;;;;;;0.50;0.50;;;;;;;16.84;73.27;98621.94;4932353;29;20023;-64
2024/01/03 10:55:35;;;;;;;0.40;0.40;;;;;;;17.32;68.75;98613.56;4931366;29;20052;-64
2024/01/03 10:58:02;;;;;;;0.50;0.50;;;;;;;17.54;67.34;98618.91;4954008;28;20074;-64
2024/01/03 11:00:30;;;;;;;0.50;0.50;;;;;;;17.73;65.24;98613.69;4970584;28;20019;-64
2024/01/03 11:03:18;;;;;;;0.40;0.40;;;;;;;18.17;62.91;98611.66;4972028;28;20110;-64
2024/01/03 11:06:05;;;;;;;0.40;0.40;;;;;;;18.42;59.21;98625.75;4903793;29;20043;-64
2024/01/03 11:08:41;;;;;;;0.40;0.40;;;;;;;18.28;57.95;98614.28;4941649;29;20043;-64
2024/01/03 11:11:06;;;;;;;0.40;0.40;;;;;;;18.68;57.81;98614.38;4949909;29;20045;-64
2024/01/03 11:13:33;;;;;;;0.30;0.30;;;;;;;18.79;56.55;98603.53;4944297;29;20491;-64
2024/01/03 11:16:01;;;;;;;0.40;0.40;;;;;;;19.23;55.92;98618.44;4931931;29;20102;-64
2024/01/03 11:18:41;;;;;;;0.30;0.30;;;;;;;18.12;57.08;98611.19;4932916;29;20023;-64
2024/01/03 11:21:27;;;;;;;0.40;0.40;;;;;;;16.99;60.46;98604.59;4948275;28;20041;-64
2024/01/03 11:23:53;;;;;;;0.40;0.40;;;;;;;16.28;64.24;98605.88;4951699;29;20035;-64
2024/01/03 11:26:19;;;;;;;0.40;0.40;;;;;;;15.99;66.52;98609.97;4947106;28;20125;-64
2024/01/03 11:28:50;;;;;;;0.40;0.40;;;;;;;15.56;69.33;98623.09;4933990;29;20483;-64